Time;durP1;ratioP1;P1;durP2;ratioP2;P2;SDS_P1;SDS_P2;PMS_P1;PMS_P2;Temp;Humidity;BMP_temperature;BMP_pressure;BME280_temperature;BME280_humidity;BME280_pressure;Samples;Min_cycle;Max_cycle;Signal;HPM_P1;HPM_P2
2021/06/12 00:02:17;;;;;;;2.00;1.42;;;24.70;53.20;;;;;;4970618;28;20129;-84
2021/06/12 00:04:43;;;;;;;1.88;1.60;;;24.60;53.20;;;;;;4972854;28;20085;-83
2021/06/12 00:07:09;;;;;;;2.00;1.67;;;24.60;53.30;;;;;;4955535;28;20141;-83
2021/06/12 00:09:34;;;;;;;1.92;1.67;;;24.60;53.30;;;;;;4973706;28;20431;-84
2021/06/12 00:12:01;;;;;;;1.85;1.70;;;24.60;53.40;;;;;;4960172;28;20055;-83
2021/06/12 00:14:27;;;;;;;2.58;1.80;;;24.60;53.40;;;;;;4975756;28;20066;-83
2021/06/12 00:16:53;;;;;;;3.00;1.77;;;24.50;53.50;;;;;;4974490;28;20483;-84
2021/06/12 00:19:18;;;;;;;2.97;1.85;;;24.50;53.60;;;;;;4940655;28;20114;-84
2021/06/12 00:21:44;;;;;;;2.78;1.88;;;24.50;53.60;;;;;;4953462;28;20070;-83
2021/06/12 00:24:10;;;;;;;3.13;1.98;;;24.40;53.60;;;;;;4987848;28;20068;-82
2021/06/12 00:26:37;;;;;;;2.28;1.75;;;24.40;53.60;;;;;;4965380;28;20041;-84
2021/06/12 00:29:03;;;;;;;3.20;1.80;;;24.40;53.70;;;;;;4940425;28;20023;-83
2021/06/12 00:31:29;;;;;;;1.75;1.63;;;24.40;53.60;;;;;;4950440;28;20860;-83
2021/06/12 00:33:55;;;;;;;2.38;1.88;;;24.40;53.60;;;;;;4937183;29;20035;-83
2021/06/12 00:36:22;;;;;;;2.08;1.67;;;24.30;53.60;;;;;;4979143;28;20026;-83
2021/06/12 00:38:49;;;;;;;2.42;1.90;;;24.30;53.70;;;;;;4974118;28;20037;-83
2021/06/12 00:41:15;;;;;;;2.00;1.60;;;24.30;53.70;;;;;;4977343;28;20022;-84
2021/06/12 00:43:44;;;;;;;2.67;1.88;;;24.30;53.70;;;;;;4938040;28;20495;-83
2021/06/12 00:46:10;;;;;;;2.58;1.98;;;24.20;53.70;;;;;;4951507;28;20472;-82
2021/06/12 00:48:37;;;;;;;2.30;1.70;;;24.20;53.70;;;;;;4965823;28;20031;-83
2021/06/12 00:51:03;;;;;;;2.00;1.80;;;24.20;53.70;;;;;;4984508;28;20027;-84
2021/06/12 00:53:41;;;;;;;2.17;1.80;;;24.20;53.80;;;;;;4972372;28;20063;-83
2021/06/12 00:56:12;;;;;;;1.92;1.70;;;24.20;53.80;;;;;;4941861;28;20038;-83
2021/06/12 00:58:43;;;;;;;2.67;1.83;;;24.20;53.80;;;;;;4970592;28;20085;-83
2021/06/12 01:01:14;;;;;;;2.80;2.00;;;24.10;54.50;;;;;;4971852;28;20027;-83
2021/06/12 01:03:41;;;;;;;2.67;2.08;;;24.10;53.90;;;;;;4981194;28;20023;-82
2021/06/12 01:06:11;;;;;;;2.95;1.90;;;24.00;54.50;;;;;;4972330;28;20144;-83
2021/06/12 01:08:37;;;;;;;2.70;1.92;;;24.00;54.00;;;;;;4938252;28;20058;-83
2021/06/12 01:11:04;;;;;;;2.17;1.77;;;24.00;53.90;;;;;;4962258;28;20058;-82
2021/06/12 01:13:53;;;;;;;3.03;2.08;;;24.00;54.00;;;;;;4961743;28;20037;-83
2021/06/12 01:16:31;;;;;;;4.03;2.20;;;24.00;54.10;;;;;;4986403;28;20073;-83
2021/06/12 01:18:59;;;;;;;3.03;1.98;;;23.90;54.00;;;;;;4992435;28;20035;-83
2021/06/12 01:21:31;;;;;;;2.55;2.15;;;23.90;54.00;;;;;;4988930;28;20103;-83
2021/06/12 01:24:20;;;;;;;2.97;2.00;;;23.90;54.20;;;;;;4973172;28;20042;-83
2021/06/12 01:26:52;;;;;;;2.40;1.90;;;23.80;54.20;;;;;;4980772;28;20022;-83
2021/06/12 01:29:44;;;;;;;2.30;1.80;;;23.80;54.20;;;;;;4968467;28;20105;-83
2021/06/12 01:32:11;;;;;;;2.42;1.85;;;23.80;54.30;;;;;;4959687;28;20106;-82
2021/06/12 01:34:39;;;;;;;2.65;2.10;;;23.80;54.30;;;;;;4982330;28;20065;-83
2021/06/12 01:37:09;;;;;;;3.45;2.30;;;23.70;54.30;;;;;;4973842;28;20443;-83
2021/06/12 01:39:37;;;;;;;2.58;1.88;;;23.70;54.30;;;;;;4974581;28;20026;-83
2021/06/12 01:42:05;;;;;;;3.85;2.38;;;23.70;54.40;;;;;;4991763;28;20539;-84
2021/06/12 01:44:32;;;;;;;2.90;2.08;;;23.70;54.40;;;;;;4975311;28;20049;-83
2021/06/12 01:47:00;;;;;;;2.95;2.30;;;23.60;54.30;;;;;;4959579;28;20114;-83
2021/06/12 01:49:29;;;;;;;3.22;2.17;;;23.60;54.40;;;;;;4983977;28;20098;-84
2021/06/12 01:51:56;;;;;;;3.42;2.10;;;23.60;54.50;;;;;;4957767;28;20067;-83
2021/06/12 01:54:24;;;;;;;3.45;2.38;;;23.60;54.50;;;;;;4954610;28;20452;-84
2021/06/12 01:56:51;;;;;;;2.53;1.90;;;23.50;54.50;;;;;;4966981;28;20101;-84
2021/06/12 01:59:19;;;;;;;2.75;2.00;;;23.50;54.50;;;;;;4958510;28;20101;-82
2021/06/12 02:01:48;;;;;;;3.53;2.05;;;23.50;54.60;;;;;;4953160;28;20039;-83
2021/06/12 02:04:19;;;;;;;2.95;2.08;;;23.40;54.50;;;;;;4982759;28;20776;-83
2021/06/12 02:06:46;;;;;;;3.42;2.17;;;23.50;54.60;;;;;;4954824;28;20035;-83
2021/06/12 02:09:14;;;;;;;3.30;2.38;;;23.40;54.60;;;;;;4974232;28;20023;-82
2021/06/12 02:11:40;;;;;;;3.35;2.22;;;23.40;54.60;;;;;;4985830;28;20478;-82
2021/06/12 02:14:08;;;;;;;2.78;2.03;;;23.40;54.60;;;;;;4974015;28;20039;-83
2021/06/12 02:16:37;;;;;;;3.95;2.40;;;23.30;54.70;;;;;;4990997;28;20023;-83
2021/06/12 02:19:05;;;;;;;3.50;2.28;;;23.30;54.70;;;;;;4974380;28;20038;-84
2021/06/12 02:21:35;;;;;;;4.25;2.60;;;23.30;54.70;;;;;;4989475;28;20078;-84
2021/06/12 02:24:03;;;;;;;3.40;2.17;;;23.30;54.70;;;;;;4977330;28;20037;-84
2021/06/12 02:26:31;;;;;;;3.53;2.40;;;23.30;54.70;;;;;;4990471;28;20026;-84
2021/06/12 02:28:58;;;;;;;3.35;2.10;;;23.30;54.70;;;;;;4958674;28;20403;-84
2021/06/12 02:31:28;;;;;;;3.90;2.25;;;23.30;54.80;;;;;;4973717;28;20102;-83
2021/06/12 02:33:54;;;;;;;2.65;2.03;;;23.20;54.80;;;;;;4974345;28;20049;-83
2021/06/12 02:36:20;;;;;;;3.60;2.17;;;23.20;54.70;;;;;;4951016;28;20045;-83
2021/06/12 02:38:46;;;;;;;3.22;2.10;;;23.20;54.70;;;;;;4971501;28;20035;-83
2021/06/12 02:41:15;;;;;;;3.60;2.33;;;23.20;54.70;;;;;;4992574;28;20027;-83
2021/06/12 02:43:41;;;;;;;4.50;2.28;;;23.20;54.80;;;;;;4992023;28;20030;-83
2021/06/12 02:46:12;;;;;;;2.75;2.08;;;23.20;54.80;;;;;;4982895;28;20045;-83
2021/06/12 02:48:38;;;;;;;2.78;2.10;;;23.10;54.80;;;;;;4990260;28;20026;-83
2021/06/12 02:51:05;;;;;;;2.90;1.98;;;23.10;54.70;;;;;;4958107;28;20038;-83
2021/06/12 02:53:36;;;;;;;3.35;2.10;;;23.10;54.80;;;;;;4968146;28;20480;-83
2021/06/12 02:56:04;;;;;;;3.25;2.08;;;23.10;54.90;;;;;;4991163;28;20046;-83
2021/06/12 02:58:30;;;;;;;3.35;2.15;;;23.10;54.90;;;;;;4959401;28;20031;-82
2021/06/12 03:00:57;;;;;;;3.50;2.25;;;23.00;54.80;;;;;;4966594;28;20045;-84
2021/06/12 03:03:24;;;;;;;2.72;1.90;;;23.00;54.90;;;;;;4993009;28;20057;-83
2021/06/12 03:05:56;;;;;;;3.03;2.00;;;23.00;54.90;;;;;;4978688;28;20039;-83
2021/06/12 03:08:27;;;;;;;2.92;2.08;;;23.00;55.00;;;;;;4979481;28;20468;-83
2021/06/12 03:10:53;;;;;;;3.08;2.05;;;23.00;55.00;;;;;;4983594;28;20548;-83
2021/06/12 03:13:26;;;;;;;3.17;1.88;;;23.00;55.00;;;;;;4953515;28;20031;-83
2021/06/12 03:15:54;;;;;;;3.33;2.03;;;23.00;55.00;;;;;;4947890;28;20045;-83
2021/06/12 03:18:22;;;;;;;3.20;2.08;;;23.00;55.00;;;;;;4989279;28;20105;-84
2021/06/12 03:20:49;;;;;;;3.38;1.92;;;22.90;55.00;;;;;;4953626;28;20077;-83
2021/06/12 03:23:17;;;;;;;3.30;2.08;;;22.90;55.10;;;;;;4993133;28;20031;-83
2021/06/12 03:25:44;;;;;;;3.15;2.00;;;22.90;55.10;;;;;;4957224;28;20042;-83
2021/06/12 03:28:10;;;;;;;2.85;1.98;;;22.90;55.10;;;;;;4985811;28;20042;-84
2021/06/12 03:30:35;;;;;;;4.10;2.08;;;22.90;55.20;;;;;;4957761;28;20031;-83
2021/06/12 03:33:02;;;;;;;3.10;1.95;;;22.90;55.20;;;;;;4958428;28;20467;-83
2021/06/12 03:35:28;;;;;;;3.75;2.10;;;22.80;55.20;;;;;;4970888;28;20125;-82
2021/06/12 03:37:55;;;;;;;3.17;2.13;;;22.80;55.20;;;;;;4967753;28;20027;-83
2021/06/12 03:40:22;;;;;;;2.67;1.85;;;22.80;55.30;;;;;;4985276;28;20023;-84
2021/06/12 03:42:48;;;;;;;2.88;2.10;;;22.80;55.30;;;;;;4996516;28;20034;-84
2021/06/12 03:45:15;;;;;;;3.20;2.08;;;22.80;55.30;;;;;;4966529;28;20038;-84
2021/06/12 03:47:42;;;;;;;3.38;2.10;;;22.80;55.30;;;;;;4972401;28;20031;-84
2021/06/12 03:50:10;;;;;;;3.15;2.00;;;22.80;55.30;;;;;;4956865;28;20031;-84
2021/06/12 03:52:38;;;;;;;3.28;2.25;;;22.80;55.40;;;;;;4965932;28;20196;-84
2021/06/12 03:55:05;;;;;;;4.10;1.85;;;22.80;55.40;;;;;;4957056;28;20054;-83
2021/06/12 03:57:31;;;;;;;3.10;1.85;;;22.70;55.40;;;;;;4972721;28;20466;-84
2021/06/12 03:59:57;;;;;;;3.50;2.00;;;22.70;55.40;;;;;;4960684;28;20478;-84
2021/06/12 04:02:24;;;;;;;3.13;2.00;;;22.70;55.50;;;;;;4990466;28;20031;-84
2021/06/12 04:04:50;;;;;;;3.10;1.95;;;22.70;55.50;;;;;;4981639;28;20042;-84
2021/06/12 04:07:17;;;;;;;2.72;1.90;;;22.70;55.50;;;;;;4972011;28;20078;-84
2021/06/12 04:09:43;;;;;;;2.35;1.77;;;22.70;55.50;;;;;;4969684;28;20035;-84
2021/06/12 04:12:10;;;;;;;3.65;1.95;;;22.70;55.60;;;;;;4956410;28;20027;-84
2021/06/12 04:14:35;;;;;;;3.47;1.85;;;22.70;55.60;;;;;;4986204;28;20094;-85
2021/06/12 04:17:01;;;;;;;3.42;2.00;;;22.60;55.60;;;;;;4938708;29;20035;-82
2021/06/12 04:19:27;;;;;;;3.40;2.22;;;22.60;55.60;;;;;;4977437;28;20046;-84
2021/06/12 04:21:53;;;;;;;3.47;2.05;;;22.60;55.60;;;;;;4960773;28;20080;-85
2021/06/12 04:24:19;;;;;;;2.55;1.77;;;22.60;55.70;;;;;;4942778;29;20384;-84
2021/06/12 04:26:44;;;;;;;2.75;1.83;;;22.60;55.70;;;;;;4999770;28;20037;-83
2021/06/12 04:29:10;;;;;;;3.72;1.80;;;22.60;55.70;;;;;;4972113;28;20022;-84
2021/06/12 04:31:36;;;;;;;2.75;1.92;;;22.60;55.70;;;;;;4963539;28;20467;-84
2021/06/12 04:34:01;;;;;;;3.30;2.10;;;22.60;55.70;;;;;;4953264;28;20502;-83
2021/06/12 04:36:27;;;;;;;3.47;1.77;;;22.60;55.70;;;;;;4980102;28;20022;-84
2021/06/12 04:38:53;;;;;;;2.33;1.80;;;22.60;55.80;;;;;;4966916;28;20034;-84
2021/06/12 04:41:19;;;;;;;2.63;1.70;;;22.60;55.80;;;;;;4963585;28;20054;-84
2021/06/12 04:43:47;;;;;;;3.05;2.03;;;22.50;55.80;;;;;;4974067;28;20118;-84
2021/06/12 04:46:13;;;;;;;3.60;2.08;;;22.50;55.80;;;;;;4987112;28;20114;-84
2021/06/12 04:48:39;;;;;;;2.70;1.88;;;22.50;56.50;;;;;;4987977;28;20037;-84
2021/06/12 04:51:06;;;;;;;2.60;1.80;;;22.50;55.90;;;;;;4987417;28;20113;-84
2021/06/12 04:53:31;;;;;;;2.90;2.00;;;22.50;55.90;;;;;;4971922;28;20058;-84
2021/06/12 04:55:59;;;;;;;2.95;1.85;;;22.50;55.90;;;;;;4969858;28;20065;-84
2021/06/12 04:58:24;;;;;;;2.15;1.63;;;22.50;56.00;;;;;;4955304;28;20038;-85
2021/06/12 05:00:52;;;;;;;2.05;1.52;;;22.50;56.00;;;;;;4943637;28;20031;-84
2021/06/12 05:03:21;;;;;;;2.67;1.77;;;22.50;56.10;;;;;;4975715;28;20029;-84
2021/06/12 05:05:48;;;;;;;2.92;1.77;;;22.50;56.00;;;;;;4973382;28;20134;-84
2021/06/12 05:08:15;;;;;;;3.15;2.10;;;22.50;56.10;;;;;;4989103;28;20109;-84
2021/06/12 05:10:41;;;;;;;2.50;1.83;;;22.50;56.10;;;;;;4993789;28;20031;-85
2021/06/12 05:13:07;;;;;;;2.95;2.13;;;22.40;56.00;;;;;;4969186;28;20042;-84
2021/06/12 05:15:33;;;;;;;3.63;1.92;;;22.40;56.10;;;;;;4954194;28;20038;-83
2021/06/12 05:18:04;;;;;;;3.67;2.03;;;22.40;56.10;;;;;;4959037;28;20046;-84
2021/06/12 05:20:31;;;;;;;2.67;1.90;;;22.40;56.10;;;;;;4971905;28;20049;-85
2021/06/12 05:22:57;;;;;;;2.35;1.70;;;22.40;56.10;;;;;;4955681;28;20053;-84
2021/06/12 05:25:23;;;;;;;2.65;1.90;;;22.40;56.10;;;;;;4945038;28;20434;-83
2021/06/12 05:27:49;;;;;;;3.10;2.05;;;22.40;56.10;;;;;;4971606;28;20551;-83
2021/06/12 05:30:15;;;;;;;3.95;2.00;;;22.40;56.20;;;;;;4971100;28;20037;-84
2021/06/12 05:32:41;;;;;;;3.20;2.10;;;22.40;56.20;;;;;;4951659;28;20125;-85
2021/06/12 05:35:07;;;;;;;2.33;1.83;;;22.40;56.20;;;;;;4936386;28;20106;-83
2021/06/12 05:37:37;;;;;;;3.08;2.10;;;22.40;56.20;;;;;;4984997;28;20125;-84
2021/06/12 05:40:05;;;;;;;2.72;1.92;;;22.40;56.30;;;;;;4973158;28;20035;-85
2021/06/12 05:42:31;;;;;;;3.33;2.25;;;22.40;56.30;;;;;;4973954;28;20027;-85
2021/06/12 05:44:56;;;;;;;3.03;2.20;;;22.40;56.30;;;;;;4948381;28;20050;-85
2021/06/12 05:47:22;;;;;;;3.75;2.30;;;22.40;56.30;;;;;;4967784;28;20034;-85
2021/06/12 05:49:48;;;;;;;3.35;2.28;;;22.40;56.30;;;;;;4965873;28;20038;-85
2021/06/12 05:52:14;;;;;;;3.22;2.35;;;22.40;57.10;;;;;;4958981;28;20018;-85
2021/06/12 05:54:40;;;;;;;3.80;2.47;;;22.40;56.50;;;;;;4977013;28;20054;-84
2021/06/12 05:57:06;;;;;;;4.53;2.50;;;22.40;56.50;;;;;;4961316;28;20031;-85
2021/06/12 05:59:31;;;;;;;3.38;2.38;;;22.40;56.60;;;;;;4961782;28;20077;-84
2021/06/12 06:01:57;;;;;;;3.83;2.70;;;22.40;56.60;;;;;;4980016;28;20031;-85
2021/06/12 06:04:23;;;;;;;3.67;2.28;;;22.40;56.70;;;;;;4952693;28;20043;-84
2021/06/12 06:06:50;;;;;;;3.67;2.05;;;22.40;56.70;;;;;;4978188;28;20133;-84
2021/06/12 06:09:16;;;;;;;4.20;2.38;;;22.40;56.70;;;;;;4956800;28;20027;-84
2021/06/12 06:11:42;;;;;;;4.07;2.67;;;22.40;56.70;;;;;;4972546;28;20046;-83
2021/06/12 06:14:08;;;;;;;3.25;2.20;;;22.40;56.70;;;;;;4943060;28;20042;-84
2021/06/12 06:16:34;;;;;;;3.33;2.40;;;22.40;56.80;;;;;;4960380;28;20027;-84
2021/06/12 06:19:00;;;;;;;3.50;2.45;;;22.40;56.80;;;;;;4941278;29;20032;-84
2021/06/12 06:21:28;;;;;;;4.60;2.50;;;22.40;57.50;;;;;;4959450;28;20472;-83
2021/06/12 06:23:55;;;;;;;3.38;2.20;;;22.40;56.90;;;;;;4969394;28;20042;-83
2021/06/12 06:26:21;;;;;;;3.22;2.30;;;22.50;57.00;;;;;;4958302;28;20027;-83
2021/06/12 06:28:46;;;;;;;3.30;2.28;;;22.50;57.00;;;;;;4960401;28;20053;-84
2021/06/12 06:31:12;;;;;;;3.05;2.20;;;22.50;57.10;;;;;;4993729;28;20029;-82
2021/06/12 06:33:38;;;;;;;3.45;2.42;;;22.50;57.10;;;;;;4961353;28;20375;-84
2021/06/12 06:36:04;;;;;;;4.05;2.88;;;22.50;57.10;;;;;;4943926;28;20457;-83
2021/06/12 06:38:30;;;;;;;4.03;2.38;;;22.50;57.10;;;;;;4947552;28;20439;-81
2021/06/12 06:40:55;;;;;;;3.40;2.22;;;22.60;57.20;;;;;;4955986;28;20023;-84
2021/06/12 06:43:21;;;;;;;4.47;2.45;;;22.50;57.10;;;;;;4967106;28;20035;-91
2021/06/12 06:45:47;;;;;;;3.22;2.00;;;22.50;57.10;;;;;;4955538;28;20057;-88
2021/06/12 06:48:15;;;;;;;2.85;2.10;;;22.50;57.10;;;;;;4975868;28;20038;-87
2021/06/12 06:50:41;;;;;;;2.85;2.13;;;22.60;57.10;;;;;;4988900;28;20027;-82
2021/06/12 06:53:07;;;;;;;3.38;2.25;;;22.70;57.20;;;;;;4984820;28;20046;-89
2021/06/12 06:55:33;;;;;;;3.63;2.35;;;22.70;57.20;;;;;;4967361;28;20038;-84
2021/06/12 06:57:59;;;;;;;4.00;2.25;;;22.70;57.20;;;;;;4970274;28;20484;-82
2021/06/12 07:00:26;;;;;;;3.05;2.22;;;22.70;57.20;;;;;;4975259;28;20054;-84
2021/06/12 07:02:53;;;;;;;4.70;2.22;;;22.70;57.20;;;;;;4972510;28;20683;-83
2021/06/12 07:05:20;;;;;;;3.30;2.20;;;22.80;57.20;;;;;;4962547;28;20502;-85
2021/06/12 07:07:46;;;;;;;4.22;2.25;;;22.70;57.10;;;;;;4966916;28;20106;-85
2021/06/12 07:10:12;;;;;;;3.67;2.00;;;22.80;57.10;;;;;;4987379;28;20030;-86
2021/06/12 07:12:39;;;;;;;2.97;1.95;;;22.80;57.10;;;;;;4981894;28;20032;-86
2021/06/12 07:15:05;;;;;;;3.80;1.92;;;22.80;57.10;;;;;;4939523;28;20031;-84
2021/06/12 07:17:31;;;;;;;3.85;2.20;;;22.80;57.00;;;;;;4961374;28;20118;-85
2021/06/12 07:19:58;;;;;;;3.00;2.05;;;22.90;57.10;;;;;;4943412;28;20126;-85
2021/06/12 07:22:24;;;;;;;3.40;2.08;;;22.90;57.00;;;;;;4942319;28;20027;-86
2021/06/12 07:24:50;;;;;;;3.20;1.98;;;23.00;57.10;;;;;;4958531;28;20097;-85
2021/06/12 07:27:16;;;;;;;2.40;1.80;;;23.00;57.00;;;;;;4959268;28;20471;-86
2021/06/12 07:29:42;;;;;;;3.28;1.80;;;23.00;57.00;;;;;;4956608;28;20027;-84
2021/06/12 07:32:08;;;;;;;2.70;1.88;;;23.10;57.00;;;;;;4946434;28;20035;-86
2021/06/12 07:34:33;;;;;;;3.50;2.00;;;23.10;56.90;;;;;;4946336;28;20129;-85
2021/06/12 07:36:59;;;;;;;3.78;2.10;;;23.10;56.90;;;;;;4958423;28;20114;-89
2021/06/12 07:39:28;;;;;;;3.47;2.00;;;23.10;56.80;;;;;;4991116;28;20526;-91
2021/06/12 07:41:55;;;;;;;2.83;2.00;;;23.20;56.80;;;;;;4949971;29;20040;-84
2021/06/12 07:44:21;;;;;;;2.72;2.10;;;23.20;56.80;;;;;;4958061;28;20538;-86
2021/06/12 07:46:47;;;;;;;2.53;1.90;;;23.20;56.80;;;;;;4956122;28;20026;-85
2021/06/12 07:49:13;;;;;;;2.60;1.90;;;23.30;56.70;;;;;;4970646;28;20027;-88
2021/06/12 07:51:43;;;;;;;1.83;1.33;;;23.30;56.60;;;;;;4971632;28;20114;-91
2021/06/12 07:54:09;;;;;;;2.15;1.50;;;23.30;56.60;;;;;;4970031;28;20074;-86
2021/06/12 07:56:38;;;;;;;2.38;1.70;;;23.40;56.60;;;;;;4957055;28;20038;-86
2021/06/12 07:59:07;;;;;;;2.00;1.50;;;23.40;56.60;;;;;;4980709;28;20085;-86
2021/06/12 08:01:35;;;;;;;2.00;1.50;;;23.40;56.90;;;;;;4950350;28;20062;-86
2021/06/12 08:04:01;;;;;;;2.47;1.50;;;23.50;56.50;;;;;;4989520;28;20408;-86
2021/06/12 08:06:29;;;;;;;2.45;1.50;;;23.50;56.50;;;;;;4973690;28;20026;-87
2021/06/12 08:08:55;;;;;;;2.40;1.50;;;23.50;56.40;;;;;;4979656;28;20046;-88
2021/06/12 08:11:20;;;;;;;2.08;1.60;;;23.50;56.40;;;;;;4951328;28;20031;-89
2021/06/12 08:13:46;;;;;;;1.92;1.30;;;23.60;56.40;;;;;;4990202;28;20047;-88
2021/06/12 08:16:12;;;;;;;2.38;1.35;;;23.60;56.30;;;;;;4966491;28;20027;-87
2021/06/12 08:18:38;;;;;;;3.30;1.40;;;23.60;56.30;;;;;;4970502;28;20027;-87
2021/06/12 08:21:04;;;;;;;1.20;1.10;;;23.60;56.20;;;;;;4946723;28;20036;-88
2021/06/12 08:23:30;;;;;;;2.65;1.58;;;23.70;56.20;;;;;;4977542;28;20037;-88
2021/06/12 08:25:56;;;;;;;1.58;1.17;;;23.70;56.20;;;;;;4954791;28;20395;-87
2021/06/12 08:28:22;;;;;;;2.15;1.30;;;23.70;56.10;;;;;;4960802;28;20034;-87
2021/06/12 08:30:47;;;;;;;1.50;1.15;;;23.80;56.10;;;;;;4968333;28;20106;-89
2021/06/12 08:33:13;;;;;;;1.40;1.30;;;23.80;56.00;;;;;;4963970;28;20042;-88
2021/06/12 08:35:39;;;;;;;2.30;1.30;;;23.80;56.00;;;;;;4964500;28;20035;-90
2021/06/12 08:38:06;;;;;;;2.13;1.42;;;23.80;55.90;;;;;;4956919;28;20483;-87
2021/06/12 08:40:33;;;;;;;1.75;1.48;;;23.90;55.90;;;;;;4971535;28;20048;-87
2021/06/12 08:42:59;;;;;;;2.20;1.50;;;23.90;55.80;;;;;;4978874;28;20031;-87
2021/06/12 08:45:30;;;;;;;1.85;1.50;;;24.00;55.70;;;;;;4981997;28;20038;-87
2021/06/12 08:47:58;;;;;;;3.28;1.38;;;24.00;55.70;;;;;;4986621;28;20053;-88
2021/06/12 08:50:25;;;;;;;2.50;1.50;;;24.00;55.60;;;;;;4982954;28;20063;-89
2021/06/12 08:52:56;;;;;;;1.75;1.52;;;24.00;55.50;;;;;;4983918;28;20057;-88
2021/06/12 08:55:22;;;;;;;1.85;1.30;;;24.10;55.50;;;;;;4943673;28;20035;-86
2021/06/12 08:57:48;;;;;;;2.17;1.48;;;24.10;55.40;;;;;;4990182;28;20058;-86
2021/06/12 09:00:15;;;;;;;1.88;1.40;;;24.20;55.40;;;;;;4974391;28;20034;-89
2021/06/12 09:03:22;;;;;;;1.70;1.15;;;24.20;55.30;;;;;;4988378;28;20049;-83
2021/06/12 09:05:54;;;;;;;1.27;1.08;;;24.30;55.30;;;;;;4978139;28;20034;-83
2021/06/12 09:08:25;;;;;;;1.40;1.17;;;24.30;55.00;;;;;;4977887;28;20459;-83
2021/06/12 09:10:56;;;;;;;1.95;1.42;;;24.40;55.00;;;;;;4971829;28;20023;-84
2021/06/12 09:13:40;;;;;;;2.33;1.50;;;24.50;54.90;;;;;;4955439;28;20118;-81
2021/06/12 09:16:19;;;;;;;2.17;1.45;;;24.50;54.80;;;;;;4987501;28;20039;-83
2021/06/12 09:18:45;;;;;;;1.92;1.20;;;24.60;54.60;;;;;;4976674;28;20038;-82
2021/06/12 09:21:26;;;;;;;1.55;1.30;;;24.60;54.50;;;;;;4977794;28;20118;-83
2021/06/12 09:23:56;;;;;;;2.33;1.33;;;24.60;54.50;;;;;;4990588;28;20030;-82
2021/06/12 09:26:22;;;;;;;2.15;1.40;;;24.70;54.40;;;;;;4954778;28;20070;-82
2021/06/12 09:28:55;;;;;;;1.85;1.25;;;24.80;54.30;;;;;;5004718;28;20041;-83
2021/06/12 09:31:24;;;;;;;1.80;1.40;;;24.90;54.20;;;;;;4942981;28;20026;-82
2021/06/12 09:33:49;;;;;;;2.55;1.40;;;24.90;54.10;;;;;;4976549;28;20022;-82
2021/06/12 09:36:16;;;;;;;2.20;1.48;;;25.00;54.00;;;;;;4977726;28;20034;-82
2021/06/12 09:38:42;;;;;;;1.90;1.20;;;25.00;53.90;;;;;;4978254;28;20050;-84
2021/06/12 09:41:21;;;;;;;2.20;1.42;;;25.10;53.80;;;;;;4994220;28;20054;-85
2021/06/12 09:43:47;;;;;;;2.63;1.40;;;25.10;53.70;;;;;;4994713;28;20474;-84
2021/06/12 09:46:31;;;;;;;1.95;1.15;;;25.20;53.60;;;;;;4994021;28;20034;-86
2021/06/12 09:48:57;;;;;;;1.25;1.00;;;25.20;53.70;;;;;;4970003;28;20035;-83
2021/06/12 09:51:22;;;;;;;1.52;1.20;;;25.30;54.10;;;;;;4964618;28;20034;-83
2021/06/12 09:53:53;;;;;;;2.20;1.40;;;25.30;53.30;;;;;;4995137;28;20137;-82
2021/06/12 09:56:20;;;;;;;2.20;1.30;;;25.40;53.30;;;;;;4993517;28;20030;-82
2021/06/12 09:58:46;;;;;;;2.00;1.38;;;25.50;53.30;;;;;;4993810;28;20084;-82
2021/06/12 10:01:15;;;;;;;1.65;1.40;;;25.50;53.20;;;;;;4990234;28;20027;-82
2021/06/12 10:03:41;;;;;;;2.90;1.55;;;25.60;53.10;;;;;;4974030;28;20089;-83
2021/06/12 10:06:13;;;;;;;1.52;1.25;;;25.60;53.00;;;;;;4972558;28;20133;-82
2021/06/12 10:08:45;;;;;;;1.60;1.35;;;25.60;52.90;;;;;;4977543;28;20027;-83
2021/06/12 10:11:12;;;;;;;2.38;1.42;;;25.70;52.90;;;;;;4979745;28;20034;-84
2021/06/12 10:13:39;;;;;;;1.40;1.30;;;25.70;52.90;;;;;;4979476;28;20031;-83
2021/06/12 10:16:06;;;;;;;1.70;1.38;;;25.70;52.80;;;;;;4982366;28;20068;-83
2021/06/12 10:18:32;;;;;;;3.60;1.48;;;25.80;52.80;;;;;;4961009;28;20093;-83
2021/06/12 10:20:58;;;;;;;2.80;1.33;;;25.80;52.70;;;;;;5009528;28;20034;-82
2021/06/12 10:23:24;;;;;;;2.42;1.52;;;25.90;52.70;;;;;;4976658;28;20019;-82
2021/06/12 10:25:52;;;;;;;2.25;1.63;;;25.90;52.60;;;;;;4978918;28;20408;-83
2021/06/12 10:28:20;;;;;;;3.67;2.08;;;25.90;52.50;;;;;;4959473;28;20037;-83
2021/06/12 10:30:46;;;;;;;2.88;1.40;;;25.90;52.50;;;;;;4979764;28;20050;-83
2021/06/12 10:33:16;;;;;;;2.60;1.55;;;26.00;52.50;;;;;;4976662;28;20061;-83
2021/06/12 10:35:42;;;;;;;2.20;1.50;;;26.00;52.50;;;;;;4996440;28;20114;-84
2021/06/12 10:38:14;;;;;;;2.20;1.33;;;26.00;52.30;;;;;;4978910;28;20093;-85
2021/06/12 10:40:48;;;;;;;1.55;1.30;;;26.10;52.40;;;;;;4948424;28;20147;-88
2021/06/12 10:43:20;;;;;;;3.05;1.40;;;26.10;52.30;;;;;;4990652;28;20034;-87
2021/06/12 10:45:48;;;;;;;2.05;1.50;;;26.10;52.20;;;;;;4980457;28;20107;-85
2021/06/12 10:48:36;;;;;;;2.00;1.38;;;26.10;52.10;;;;;;4990875;28;20456;-88
2021/06/12 10:51:03;;;;;;;2.22;1.30;;;26.20;52.20;;;;;;4977782;28;20035;-85
2021/06/12 10:53:36;;;;;;;1.92;1.42;;;26.20;52.10;;;;;;4977673;28;20062;-87
2021/06/12 10:56:30;;;;;;;2.13;1.23;;;26.20;51.90;;;;;;4962559;28;20437;-86
2021/06/12 10:58:56;;;;;;;2.60;1.50;;;26.20;52.60;;;;;;4994368;28;20113;-88
2021/06/12 11:01:23;;;;;;;2.25;1.40;;;26.30;51.90;;;;;;4961122;28;20906;-87
2021/06/12 11:09:15;;;;;;;2.58;1.40;;;26.30;51.70;;;;;;4970247;28;20070;-83
2021/06/12 11:11:49;;;;;;;1.58;1.10;;;26.40;51.50;;;;;;4979605;28;20038;-83
2021/06/12 11:14:21;;;;;;;2.20;1.23;;;26.40;51.50;;;;;;4987119;28;20106;-84
2021/06/12 11:17:09;;;;;;;2.22;1.17;;;26.50;51.50;;;;;;4974745;28;20041;-85
2021/06/12 11:19:54;;;;;;;1.90;1.40;;;26.50;51.60;;;;;;4948221;28;20042;-86
2021/06/12 11:22:41;;;;;;;3.95;1.63;;;26.50;51.40;;;;;;4988316;28;20035;-90
2021/06/12 11:25:10;;;;;;;1.17;1.08;;;26.60;51.40;;;;;;4966394;28;20031;-85
2021/06/12 11:27:38;;;;;;;1.48;1.20;;;26.50;51.20;;;;;;4982051;28;20174;-87
2021/06/12 11:30:22;;;;;;;1.25;1.15;;;26.60;51.30;;;;;;4976669;28;20033;-84
2021/06/12 11:32:57;;;;;;;3.08;1.85;;;26.60;51.20;;;;;;4955070;28;20178;-84
2021/06/12 11:35:46;;;;;;;1.80;1.25;;;26.70;51.20;;;;;;4997620;28;20061;-84
2021/06/12 11:38:52;;;;;;;2.50;1.35;;;26.70;51.30;;;;;;4992509;28;20034;-86
2021/06/12 11:41:17;;;;;;;;;;;26.70;51.20;;;;;;4991871;28;20034;-85
2021/06/12 11:43:45;;;;;;;2.35;1.30;;;26.70;51.20;;;;;;4984975;28;19910;-84
2021/06/12 11:46:32;;;;;;;2.75;1.40;;;26.70;51.00;;;;;;4991877;28;20061;-85
2021/06/12 11:49:00;;;;;;;1.98;1.20;;;26.70;51.20;;;;;;4992158;28;20073;-84
2021/06/12 11:51:37;;;;;;;2.78;1.40;;;26.80;51.10;;;;;;4975842;28;20086;-84
2021/06/12 11:54:03;;;;;;;2.63;1.50;;;26.70;50.90;;;;;;4991303;28;20141;-84
2021/06/12 11:56:37;;;;;;;2.22;1.45;;;26.70;50.90;;;;;;4970758;28;20089;-86
2021/06/12 11:59:05;;;;;;;1.75;1.30;;;26.80;51.00;;;;;;4972526;28;20033;-86
2021/06/12 12:01:50;;;;;;;1.80;1.30;;;26.80;50.90;;;;;;4957333;28;20041;-86
2021/06/12 12:04:17;;;;;;;;;;;26.80;50.90;;;;;;4972543;28;20047;-84
2021/06/12 12:06:55;;;;;;;1.75;1.25;;;26.80;50.90;;;;;;4991703;28;19949;-83
2021/06/12 12:09:35;;;;;;;2.35;1.30;;;26.80;50.80;;;;;;4988587;28;20058;-83
2021/06/12 12:12:02;;;;;;;2.83;1.50;;;26.80;50.80;;;;;;4976945;28;20173;-85
2021/06/12 12:14:38;;;;;;;2.25;1.33;;;26.80;50.70;;;;;;4969412;28;20058;-84
2021/06/12 12:17:06;;;;;;;2.20;1.42;;;26.80;50.70;;;;;;4991901;28;20030;-85
2021/06/12 12:19:32;;;;;;;2.58;1.40;;;26.80;50.70;;;;;;4991811;28;20105;-85
2021/06/12 12:22:01;;;;;;;2.05;1.30;;;26.90;50.70;;;;;;4991500;28;20081;-84
2021/06/12 12:24:29;;;;;;;3.10;1.60;;;26.90;50.70;;;;;;4968670;28;20086;-85
2021/06/12 12:27:08;;;;;;;2.90;1.30;;;26.90;50.60;;;;;;4986786;28;20030;-85
2021/06/12 12:29:39;;;;;;;2.03;1.35;;;26.90;50.70;;;;;;4983682;28;20023;-85
2021/06/12 12:32:06;;;;;;;1.73;1.10;;;26.90;50.60;;;;;;4971213;28;20069;-85
2021/06/12 12:34:38;;;;;;;3.25;1.27;;;26.90;50.60;;;;;;4992352;28;20042;-86
2021/06/12 12:37:09;;;;;;;3.63;1.70;;;26.90;50.50;;;;;;4991353;28;20030;-84
2021/06/12 12:39:41;;;;;;;3.03;1.40;;;26.90;50.50;;;;;;4976683;28;20027;-85
2021/06/12 12:42:09;;;;;;;1.65;1.15;;;26.90;50.50;;;;;;4967658;28;20402;-84
2021/06/12 12:44:35;;;;;;;2.72;1.45;;;26.90;50.50;;;;;;4952589;28;20047;-84
2021/06/12 12:47:01;;;;;;;2.15;1.20;;;26.90;50.50;;;;;;4937193;29;20093;-85
2021/06/12 12:49:31;;;;;;;2.25;1.30;;;26.90;50.40;;;;;;4943212;28;20026;-86
2021/06/12 12:52:03;;;;;;;2.50;1.35;;;26.90;50.40;;;;;;4976050;28;20487;-87
2021/06/12 12:54:31;;;;;;;2.80;1.40;;;26.90;51.10;;;;;;4984849;28;20293;-85
2021/06/12 12:57:09;;;;;;;2.83;1.45;;;26.90;50.40;;;;;;4992031;28;20038;-85
2021/06/12 12:59:36;;;;;;;2.10;1.20;;;26.90;50.40;;;;;;4988076;28;20031;-85
2021/06/12 13:02:07;;;;;;;2.45;1.38;;;26.90;50.40;;;;;;4969168;28;20023;-85